sensor_id;sensor_type;location;lat;lon;timestamp;P1;durP1;ratioP1;P2;durP2;ratioP2
18685;SDS011;9473;52.342;13.110;2023-07-13T00:01:45;5.75;;;2.28;;
18685;SDS011;9473;52.342;13.110;2023-07-13T00:04:14;4.30;;;2.50;;
18685;SDS011;9473;52.342;13.110;2023-07-13T00:06:41;5.68;;;2.30;;
18685;SDS011;9473;52.342;13.110;2023-07-13T00:09:09;4.82;;;2.33;;
18685;SDS011;9473;52.342;13.110;2023-07-13T00:11:37;3.25;;;2.17;;
18685;SDS011;9473;52.342;13.110;2023-07-13T00:14:04;6.63;;;2.22;;
18685;SDS011;9473;52.342;13.110;2023-07-13T00:16:33;6.50;;;2.55;;
18685;SDS011;9473;52.342;13.110;2023-07-13T00:18:59;3.80;;;2.33;;
18685;SDS011;9473;52.342;13.110;2023-07-13T00:21:26;4.47;;;2.58;;
18685;SDS011;9473;52.342;13.110;2023-07-13T00:23:53;3.53;;;2.30;;
18685;SDS011;9473;52.342;13.110;2023-07-13T00:26:20;5.28;;;2.60;;
18685;SDS011;9473;52.342;13.110;2023-07-13T00:28:47;3.42;;;2.42;;
18685;SDS011;9473;52.342;13.110;2023-07-13T00:31:14;5.50;;;2.50;;
18685;SDS011;9473;52.342;13.110;2023-07-13T00:33:42;4.50;;;2.40;;
18685;SDS011;9473;52.342;13.110;2023-07-13T00:36:10;3.70;;;2.25;;
18685;SDS011;9473;52.342;13.110;2023-07-13T00:38:37;3.03;;;2.30;;
18685;SDS011;9473;52.342;13.110;2023-07-13T00:41:04;4.22;;;2.30;;
18685;SDS011;9473;52.342;13.110;2023-07-13T00:43:31;4.35;;;2.40;;
18685;SDS011;9473;52.342;13.110;2023-07-13T00:46:19;7.05;;;3.00;;
18685;SDS011;9473;52.342;13.110;2023-07-13T00:48:47;5.78;;;2.65;;
18685;SDS011;9473;52.342;13.110;2023-07-13T00:51:15;7.15;;;2.80;;
18685;SDS011;9473;52.342;13.110;2023-07-13T00:53:44;4.70;;;2.67;;
18685;SDS011;9473;52.342;13.110;2023-07-13T00:56:11;8.82;;;2.85;;
18685;SDS011;9473;52.342;13.110;2023-07-13T00:58:38;7.63;;;3.25;;
18685;SDS011;9473;52.342;13.110;2023-07-13T01:01:05;8.43;;;3.78;;
18685;SDS011;9473;52.342;13.110;2023-07-13T01:03:32;4.05;;;2.60;;
18685;SDS011;9473;52.342;13.110;2023-07-13T01:06:02;8.27;;;3.33;;
18685;SDS011;9473;52.342;13.110;2023-07-13T01:08:29;8.23;;;2.50;;
18685;SDS011;9473;52.342;13.110;2023-07-13T01:10:56;4.55;;;2.55;;
18685;SDS011;9473;52.342;13.110;2023-07-13T01:13:24;4.40;;;2.70;;
18685;SDS011;9473;52.342;13.110;2023-07-13T01:15:51;6.55;;;2.67;;
18685;SDS011;9473;52.342;13.110;2023-07-13T01:18:20;6.00;;;2.90;;
18685;SDS011;9473;52.342;13.110;2023-07-13T01:20:54;3.75;;;2.55;;
18685;SDS011;9473;52.342;13.110;2023-07-13T01:23:21;7.03;;;3.00;;
18685;SDS011;9473;52.342;13.110;2023-07-13T01:25:49;7.93;;;3.20;;
18685;SDS011;9473;52.342;13.110;2023-07-13T01:28:16;4.60;;;3.08;;
18685;SDS011;9473;52.342;13.110;2023-07-13T01:30:44;5.93;;;3.28;;
18685;SDS011;9473;52.342;13.110;2023-07-13T01:33:11;4.65;;;2.55;;
18685;SDS011;9473;52.342;13.110;2023-07-13T01:35:39;8.02;;;2.90;;
18685;SDS011;9473;52.342;13.110;2023-07-13T01:38:07;4.20;;;2.70;;
18685;SDS011;9473;52.342;13.110;2023-07-13T01:40:35;6.25;;;2.90;;
18685;SDS011;9473;52.342;13.110;2023-07-13T01:43:03;5.65;;;3.08;;
18685;SDS011;9473;52.342;13.110;2023-07-13T01:45:29;5.40;;;3.00;;
18685;SDS011;9473;52.342;13.110;2023-07-13T01:47:56;6.03;;;2.95;;
18685;SDS011;9473;52.342;13.110;2023-07-13T01:50:23;4.80;;;3.05;;
18685;SDS011;9473;52.342;13.110;2023-07-13T01:52:50;6.30;;;3.15;;
18685;SDS011;9473;52.342;13.110;2023-07-13T01:55:19;6.63;;;3.00;;
18685;SDS011;9473;52.342;13.110;2023-07-13T01:57:47;5.13;;;2.72;;
18685;SDS011;9473;52.342;13.110;2023-07-13T02:00:14;3.47;;;2.78;;
18685;SDS011;9473;52.342;13.110;2023-07-13T02:02:41;5.45;;;2.95;;
18685;SDS011;9473;52.342;13.110;2023-07-13T02:05:08;6.07;;;2.58;;
18685;SDS011;9473;52.342;13.110;2023-07-13T02:07:35;5.88;;;2.85;;
18685;SDS011;9473;52.342;13.110;2023-07-13T02:10:02;5.22;;;3.00;;
18685;SDS011;9473;52.342;13.110;2023-07-13T02:12:30;6.97;;;2.83;;
18685;SDS011;9473;52.342;13.110;2023-07-13T02:14:57;8.55;;;3.05;;
18685;SDS011;9473;52.342;13.110;2023-07-13T02:17:25;5.75;;;2.85;;
18685;SDS011;9473;52.342;13.110;2023-07-13T02:19:52;4.47;;;2.97;;
18685;SDS011;9473;52.342;13.110;2023-07-13T02:22:19;5.97;;;2.90;;
18685;SDS011;9473;52.342;13.110;2023-07-13T02:24:46;5.75;;;2.88;;
18685;SDS011;9473;52.342;13.110;2023-07-13T02:27:13;4.45;;;3.15;;
18685;SDS011;9473;52.342;13.110;2023-07-13T02:29:41;4.95;;;2.90;;
18685;SDS011;9473;52.342;13.110;2023-07-13T02:32:08;6.35;;;3.25;;
18685;SDS011;9473;52.342;13.110;2023-07-13T02:34:35;6.07;;;3.28;;
18685;SDS011;9473;52.342;13.110;2023-07-13T02:37:02;5.53;;;3.30;;
18685;SDS011;9473;52.342;13.110;2023-07-13T02:39:29;4.18;;;3.10;;
18685;SDS011;9473;52.342;13.110;2023-07-13T02:41:57;5.45;;;3.08;;
18685;SDS011;9473;52.342;13.110;2023-07-13T02:44:25;3.97;;;2.88;;
18685;SDS011;9473;52.342;13.110;2023-07-13T02:46:53;5.85;;;2.90;;
18685;SDS011;9473;52.342;13.110;2023-07-13T02:49:20;7.35;;;3.22;;
18685;SDS011;9473;52.342;13.110;2023-07-13T02:51:47;5.13;;;3.08;;
18685;SDS011;9473;52.342;13.110;2023-07-13T02:54:14;5.15;;;3.22;;
18685;SDS011;9473;52.342;13.110;2023-07-13T02:56:41;4.20;;;3.25;;
18685;SDS011;9473;52.342;13.110;2023-07-13T02:59:08;4.82;;;3.30;;
18685;SDS011;9473;52.342;13.110;2023-07-13T03:01:35;4.70;;;2.97;;
18685;SDS011;9473;52.342;13.110;2023-07-13T03:04:04;6.35;;;3.50;;
18685;SDS011;9473;52.342;13.110;2023-07-13T03:06:31;5.55;;;3.08;;
18685;SDS011;9473;52.342;13.110;2023-07-13T03:08:58;6.88;;;3.30;;
18685;SDS011;9473;52.342;13.110;2023-07-13T03:11:26;5.25;;;3.28;;
18685;SDS011;9473;52.342;13.110;2023-07-13T03:13:53;6.15;;;3.40;;
18685;SDS011;9473;52.342;13.110;2023-07-13T03:16:20;5.75;;;3.65;;
18685;SDS011;9473;52.342;13.110;2023-07-13T03:18:47;6.28;;;3.80;;
18685;SDS011;9473;52.342;13.110;2023-07-13T03:21:15;7.40;;;3.75;;
18685;SDS011;9473;52.342;13.110;2023-07-13T03:23:43;5.57;;;3.53;;
18685;SDS011;9473;52.342;13.110;2023-07-13T03:26:11;4.07;;;3.17;;
18685;SDS011;9473;52.342;13.110;2023-07-13T03:28:38;5.55;;;3.22;;
18685;SDS011;9473;52.342;13.110;2023-07-13T03:31:06;5.57;;;3.47;;
18685;SDS011;9473;52.342;13.110;2023-07-13T03:33:34;4.28;;;2.90;;
18685;SDS011;9473;52.342;13.110;2023-07-13T03:36:01;4.85;;;3.42;;
18685;SDS011;9473;52.342;13.110;2023-07-13T03:38:30;8.52;;;3.58;;
18685;SDS011;9473;52.342;13.110;2023-07-13T03:40:57;6.57;;;3.33;;
18685;SDS011;9473;52.342;13.110;2023-07-13T03:43:24;6.03;;;3.50;;
18685;SDS011;9473;52.342;13.110;2023-07-13T03:45:51;5.93;;;3.60;;
18685;SDS011;9473;52.342;13.110;2023-07-13T03:48:17;6.00;;;3.58;;
18685;SDS011;9473;52.342;13.110;2023-07-13T03:50:44;4.60;;;3.60;;
18685;SDS011;9473;52.342;13.110;2023-07-13T03:53:11;6.43;;;3.65;;
18685;SDS011;9473;52.342;13.110;2023-07-13T03:55:40;5.82;;;3.20;;
18685;SDS011;9473;52.342;13.110;2023-07-13T03:58:26;8.07;;;3.40;;
18685;SDS011;9473;52.342;13.110;2023-07-13T04:00:53;4.50;;;3.45;;
18685;SDS011;9473;52.342;13.110;2023-07-13T04:03:20;7.93;;;3.60;;
18685;SDS011;9473;52.342;13.110;2023-07-13T04:05:47;5.20;;;3.78;;
18685;SDS011;9473;52.342;13.110;2023-07-13T04:08:14;5.18;;;3.53;;
18685;SDS011;9473;52.342;13.110;2023-07-13T04:10:43;6.47;;;3.35;;
18685;SDS011;9473;52.342;13.110;2023-07-13T04:13:10;6.28;;;3.33;;
18685;SDS011;9473;52.342;13.110;2023-07-13T04:15:38;5.88;;;3.47;;
18685;SDS011;9473;52.342;13.110;2023-07-13T04:18:05;5.20;;;3.47;;
18685;SDS011;9473;52.342;13.110;2023-07-13T04:20:32;5.65;;;3.60;;
18685;SDS011;9473;52.342;13.110;2023-07-13T04:22:59;6.95;;;4.05;;
18685;SDS011;9473;52.342;13.110;2023-07-13T04:25:26;4.75;;;3.75;;
18685;SDS011;9473;52.342;13.110;2023-07-13T04:27:55;8.18;;;3.80;;
18685;SDS011;9473;52.342;13.110;2023-07-13T04:30:22;5.65;;;3.40;;
18685;SDS011;9473;52.342;13.110;2023-07-13T04:32:50;5.55;;;3.45;;
18685;SDS011;9473;52.342;13.110;2023-07-13T04:35:17;5.55;;;3.40;;
18685;SDS011;9473;52.342;13.110;2023-07-13T04:37:45;4.43;;;3.20;;
18685;SDS011;9473;52.342;13.110;2023-07-13T04:40:12;4.70;;;3.00;;
18685;SDS011;9473;52.342;13.110;2023-07-13T04:42:39;7.65;;;3.20;;
18685;SDS011;9473;52.342;13.110;2023-07-13T04:45:09;6.70;;;3.63;;
18685;SDS011;9473;52.342;13.110;2023-07-13T04:47:36;9.52;;;3.50;;
18685;SDS011;9473;52.342;13.110;2023-07-13T04:50:04;5.97;;;3.40;;
18685;SDS011;9473;52.342;13.110;2023-07-13T04:52:31;7.38;;;3.40;;
18685;SDS011;9473;52.342;13.110;2023-07-13T04:54:58;6.22;;;3.35;;
18685;SDS011;9473;52.342;13.110;2023-07-13T04:57:25;6.10;;;3.38;;
18685;SDS011;9473;52.342;13.110;2023-07-13T04:59:52;6.72;;;3.35;;
18685;SDS011;9473;52.342;13.110;2023-07-13T05:02:21;3.47;;;3.00;;
18685;SDS011;9473;52.342;13.110;2023-07-13T05:04:48;5.55;;;3.40;;
18685;SDS011;9473;52.342;13.110;2023-07-13T05:07:15;4.65;;;3.42;;
18685;SDS011;9473;52.342;13.110;2023-07-13T05:09:42;5.25;;;2.85;;
18685;SDS011;9473;52.342;13.110;2023-07-13T05:12:09;4.50;;;3.05;;
18685;SDS011;9473;52.342;13.110;2023-07-13T05:14:36;6.30;;;3.10;;
18685;SDS011;9473;52.342;13.110;2023-07-13T05:17:03;6.55;;;3.30;;
18685;SDS011;9473;52.342;13.110;2023-07-13T05:19:32;5.95;;;2.90;;
18685;SDS011;9473;52.342;13.110;2023-07-13T05:21:59;5.05;;;3.25;;
18685;SDS011;9473;52.342;13.110;2023-07-13T05:24:26;7.38;;;3.00;;
18685;SDS011;9473;52.342;13.110;2023-07-13T05:26:53;3.78;;;2.88;;
18685;SDS011;9473;52.342;13.110;2023-07-13T05:29:20;6.95;;;3.20;;
18685;SDS011;9473;52.342;13.110;2023-07-13T05:31:47;5.50;;;2.70;;
18685;SDS011;9473;52.342;13.110;2023-07-13T05:34:14;3.60;;;3.17;;
18685;SDS011;9473;52.342;13.110;2023-07-13T05:36:43;7.47;;;3.33;;
18685;SDS011;9473;52.342;13.110;2023-07-13T05:39:09;4.88;;;2.63;;
18685;SDS011;9473;52.342;13.110;2023-07-13T05:41:37;6.32;;;2.90;;
18685;SDS011;9473;52.342;13.110;2023-07-13T05:44:04;4.57;;;2.72;;
18685;SDS011;9473;52.342;13.110;2023-07-13T05:46:31;4.97;;;2.90;;
18685;SDS011;9473;52.342;13.110;2023-07-13T05:48:58;6.00;;;2.92;;
18685;SDS011;9473;52.342;13.110;2023-07-13T05:51:25;6.32;;;2.80;;
18685;SDS011;9473;52.342;13.110;2023-07-13T05:53:53;7.70;;;3.10;;
18685;SDS011;9473;52.342;13.110;2023-07-13T05:56:20;3.90;;;2.67;;
18685;SDS011;9473;52.342;13.110;2023-07-13T05:58:48;4.10;;;2.30;;
18685;SDS011;9473;52.342;13.110;2023-07-13T06:01:15;8.15;;;2.72;;
18685;SDS011;9473;52.342;13.110;2023-07-13T06:03:43;5.88;;;2.95;;
18685;SDS011;9473;52.342;13.110;2023-07-13T06:06:10;9.13;;;2.47;;
18685;SDS011;9473;52.342;13.110;2023-07-13T06:08:37;4.63;;;2.20;;
18685;SDS011;9473;52.342;13.110;2023-07-13T06:11:05;5.15;;;2.40;;
18685;SDS011;9473;52.342;13.110;2023-07-13T06:13:32;3.55;;;2.20;;
18685;SDS011;9473;52.342;13.110;2023-07-13T06:15:59;3.85;;;2.25;;
18685;SDS011;9473;52.342;13.110;2023-07-13T06:18:29;2.78;;;2.30;;
18685;SDS011;9473;52.342;13.110;2023-07-13T06:20:56;5.30;;;2.65;;
18685;SDS011;9473;52.342;13.110;2023-07-13T06:23:23;4.32;;;2.30;;
18685;SDS011;9473;52.342;13.110;2023-07-13T06:25:50;4.97;;;2.22;;
18685;SDS011;9473;52.342;13.110;2023-07-13T06:28:18;5.00;;;2.10;;
18685;SDS011;9473;52.342;13.110;2023-07-13T06:30:45;3.72;;;2.00;;
18685;SDS011;9473;52.342;13.110;2023-07-13T06:33:12;6.78;;;2.30;;
18685;SDS011;9473;52.342;13.110;2023-07-13T06:35:39;4.22;;;2.30;;
18685;SDS011;9473;52.342;13.110;2023-07-13T06:38:06;3.85;;;1.90;;
18685;SDS011;9473;52.342;13.110;2023-07-13T06:40:33;3.00;;;2.10;;
18685;SDS011;9473;52.342;13.110;2023-07-13T06:43:00;4.38;;;2.08;;
18685;SDS011;9473;52.342;13.110;2023-07-13T06:45:28;6.38;;;2.47;;
18685;SDS011;9473;52.342;13.110;2023-07-13T06:47:55;5.85;;;2.10;;
18685;SDS011;9473;52.342;13.110;2023-07-13T06:50:22;5.80;;;2.55;;
18685;SDS011;9473;52.342;13.110;2023-07-13T06:52:49;5.72;;;2.50;;
18685;SDS011;9473;52.342;13.110;2023-07-13T06:55:16;4.53;;;2.55;;
18685;SDS011;9473;52.342;13.110;2023-07-13T06:57:43;4.70;;;2.13;;
18685;SDS011;9473;52.342;13.110;2023-07-13T07:00:12;4.03;;;2.58;;
18685;SDS011;9473;52.342;13.110;2023-07-13T07:02:40;3.05;;;1.95;;
18685;SDS011;9473;52.342;13.110;2023-07-13T07:05:07;6.72;;;2.30;;
18685;SDS011;9473;52.342;13.110;2023-07-13T07:07:34;4.03;;;2.00;;
18685;SDS011;9473;52.342;13.110;2023-07-13T07:10:02;5.43;;;2.03;;
18685;SDS011;9473;52.342;13.110;2023-07-13T07:12:29;5.07;;;2.05;;
18685;SDS011;9473;52.342;13.110;2023-07-13T07:14:56;4.47;;;1.70;;
18685;SDS011;9473;52.342;13.110;2023-07-13T07:17:23;4.75;;;2.08;;
18685;SDS011;9473;52.342;13.110;2023-07-13T07:19:52;4.43;;;1.90;;
18685;SDS011;9473;52.342;13.110;2023-07-13T07:22:19;4.05;;;1.77;;
18685;SDS011;9473;52.342;13.110;2023-07-13T07:24:46;3.15;;;1.63;;
18685;SDS011;9473;52.342;13.110;2023-07-13T07:27:13;8.52;;;1.90;;
18685;SDS011;9473;52.342;13.110;2023-07-13T07:29:40;2.53;;;1.63;;
18685;SDS011;9473;52.342;13.110;2023-07-13T07:32:07;2.00;;;1.42;;
18685;SDS011;9473;52.342;13.110;2023-07-13T07:34:34;5.07;;;1.80;;
18685;SDS011;9473;52.342;13.110;2023-07-13T07:37:03;3.35;;;1.67;;
18685;SDS011;9473;52.342;13.110;2023-07-13T07:39:30;4.72;;;2.10;;
18685;SDS011;9473;52.342;13.110;2023-07-13T07:41:57;3.92;;;1.83;;
18685;SDS011;9473;52.342;13.110;2023-07-13T07:44:24;4.45;;;1.75;;
18685;SDS011;9473;52.342;13.110;2023-07-13T07:46:52;6.07;;;1.83;;
18685;SDS011;9473;52.342;13.110;2023-07-13T07:49:19;4.85;;;1.52;;
18685;SDS011;9473;52.342;13.110;2023-07-13T07:51:46;3.35;;;1.60;;
18685;SDS011;9473;52.342;13.110;2023-07-13T07:54:14;5.05;;;1.83;;
18685;SDS011;9473;52.342;13.110;2023-07-13T07:56:41;2.28;;;1.73;;
18685;SDS011;9473;52.342;13.110;2023-07-13T07:59:08;8.77;;;1.90;;
18685;SDS011;9473;52.342;13.110;2023-07-13T08:01:35;7.85;;;1.60;;
18685;SDS011;9473;52.342;13.110;2023-07-13T08:04:02;3.58;;;1.80;;
18685;SDS011;9473;52.342;13.110;2023-07-13T08:06:31;2.42;;;1.73;;
18685;SDS011;9473;52.342;13.110;2023-07-13T08:08:58;2.10;;;1.65;;
18685;SDS011;9473;52.342;13.110;2023-07-13T08:11:27;2.22;;;1.92;;
18685;SDS011;9473;52.342;13.110;2023-07-13T08:13:54;2.47;;;1.65;;
18685;SDS011;9473;52.342;13.110;2023-07-13T08:16:21;3.47;;;1.95;;
18685;SDS011;9473;52.342;13.110;2023-07-13T08:18:48;2.88;;;1.85;;
18685;SDS011;9473;52.342;13.110;2023-07-13T08:21:15;4.60;;;2.00;;
18685;SDS011;9473;52.342;13.110;2023-07-13T08:23:44;4.13;;;2.10;;
18685;SDS011;9473;52.342;13.110;2023-07-13T08:26:11;6.35;;;2.20;;
18685;SDS011;9473;52.342;13.110;2023-07-13T08:28:40;5.20;;;2.00;;
18685;SDS011;9473;52.342;13.110;2023-07-13T08:31:07;2.75;;;1.70;;
18685;SDS011;9473;52.342;13.110;2023-07-13T08:33:34;5.43;;;2.10;;
18685;SDS011;9473;52.342;13.110;2023-07-13T08:36:01;5.13;;;2.05;;
18685;SDS011;9473;52.342;13.110;2023-07-13T08:38:29;6.07;;;2.00;;
18685;SDS011;9473;52.342;13.110;2023-07-13T08:40:56;4.43;;;1.73;;
18685;SDS011;9473;52.342;13.110;2023-07-13T08:43:25;2.50;;;1.65;;
18685;SDS011;9473;52.342;13.110;2023-07-13T08:45:55;5.53;;;1.85;;
18685;SDS011;9473;52.342;13.110;2023-07-13T08:48:25;3.95;;;1.83;;
18685;SDS011;9473;52.342;13.110;2023-07-13T08:50:54;2.85;;;1.58;;
18685;SDS011;9473;52.342;13.110;2023-07-13T08:53:22;6.15;;;2.10;;
18685;SDS011;9473;52.342;13.110;2023-07-13T08:55:50;3.70;;;1.80;;
18685;SDS011;9473;52.342;13.110;2023-07-13T08:58:18;3.58;;;1.70;;
18685;SDS011;9473;52.342;13.110;2023-07-13T09:00:47;4.35;;;2.20;;
18685;SDS011;9473;52.342;13.110;2023-07-13T09:03:20;3.83;;;1.90;;
18685;SDS011;9473;52.342;13.110;2023-07-13T09:05:50;3.55;;;1.70;;
18685;SDS011;9473;52.342;13.110;2023-07-13T09:08:25;3.70;;;1.58;;
18685;SDS011;9473;52.342;13.110;2023-07-13T09:10:58;3.03;;;2.00;;
18685;SDS011;9473;52.342;13.110;2023-07-13T09:13:27;2.80;;;1.92;;
18685;SDS011;9473;52.342;13.110;2023-07-13T09:15:57;4.95;;;2.13;;
18685;SDS011;9473;52.342;13.110;2023-07-13T09:18:37;5.63;;;2.15;;
18685;SDS011;9473;52.342;13.110;2023-07-13T09:21:05;4.97;;;2.65;;
18685;SDS011;9473;52.342;13.110;2023-07-13T09:23:34;5.45;;;3.03;;
18685;SDS011;9473;52.342;13.110;2023-07-13T09:26:02;6.18;;;2.38;;
18685;SDS011;9473;52.342;13.110;2023-07-13T09:28:33;6.63;;;2.70;;
18685;SDS011;9473;52.342;13.110;2023-07-13T09:31:02;8.38;;;2.78;;
18685;SDS011;9473;52.342;13.110;2023-07-13T09:33:32;5.65;;;2.70;;
18685;SDS011;9473;52.342;13.110;2023-07-13T09:36:00;6.22;;;2.88;;
18685;SDS011;9473;52.342;13.110;2023-07-13T09:38:27;4.65;;;2.70;;
18685;SDS011;9473;52.342;13.110;2023-07-13T09:40:58;4.63;;;2.63;;
18685;SDS011;9473;52.342;13.110;2023-07-13T09:43:26;3.58;;;2.63;;
18685;SDS011;9473;52.342;13.110;2023-07-13T09:45:53;3.78;;;2.40;;
18685;SDS011;9473;52.342;13.110;2023-07-13T09:48:21;5.35;;;2.90;;
18685;SDS011;9473;52.342;13.110;2023-07-13T09:50:51;6.72;;;2.88;;
18685;SDS011;9473;52.342;13.110;2023-07-13T09:53:20;7.70;;;2.90;;
18685;SDS011;9473;52.342;13.110;2023-07-13T09:55:48;6.63;;;2.65;;
18685;SDS011;9473;52.342;13.110;2023-07-13T09:58:16;5.38;;;2.50;;
18685;SDS011;9473;52.342;13.110;2023-07-13T10:00:54;4.05;;;2.45;;
18685;SDS011;9473;52.342;13.110;2023-07-13T10:03:23;5.18;;;2.75;;
18685;SDS011;9473;52.342;13.110;2023-07-13T10:05:52;4.25;;;2.70;;
18685;SDS011;9473;52.342;13.110;2023-07-13T10:08:24;4.95;;;2.88;;
18685;SDS011;9473;52.342;13.110;2023-07-13T10:10:53;4.53;;;2.72;;
18685;SDS011;9473;52.342;13.110;2023-07-13T10:13:24;6.40;;;3.22;;
18685;SDS011;9473;52.342;13.110;2023-07-13T10:15:52;6.60;;;2.55;;
18685;SDS011;9473;52.342;13.110;2023-07-13T10:18:19;8.35;;;2.70;;
18685;SDS011;9473;52.342;13.110;2023-07-13T10:20:47;5.47;;;2.50;;
18685;SDS011;9473;52.342;13.110;2023-07-13T10:23:19;8.32;;;3.35;;
18685;SDS011;9473;52.342;13.110;2023-07-13T10:25:48;6.63;;;2.78;;
18685;SDS011;9473;52.342;13.110;2023-07-13T10:28:21;5.97;;;2.97;;
18685;SDS011;9473;52.342;13.110;2023-07-13T10:30:51;7.18;;;3.13;;
18685;SDS011;9473;52.342;13.110;2023-07-13T10:33:19;8.30;;;2.80;;
18685;SDS011;9473;52.342;13.110;2023-07-13T10:35:47;5.53;;;2.47;;
18685;SDS011;9473;52.342;13.110;2023-07-13T10:38:20;6.57;;;3.20;;
18685;SDS011;9473;52.342;13.110;2023-07-13T10:40:50;7.35;;;3.20;;
18685;SDS011;9473;52.342;13.110;2023-07-13T10:43:22;8.23;;;2.78;;
18685;SDS011;9473;52.342;13.110;2023-07-13T10:45:52;6.13;;;2.67;;
18685;SDS011;9473;52.342;13.110;2023-07-13T10:48:19;5.18;;;2.90;;
18685;SDS011;9473;52.342;13.110;2023-07-13T10:50:48;5.65;;;2.97;;
18685;SDS011;9473;52.342;13.110;2023-07-13T10:53:18;5.38;;;2.55;;
18685;SDS011;9473;52.342;13.110;2023-07-13T10:55:56;5.13;;;2.50;;
18685;SDS011;9473;52.342;13.110;2023-07-13T10:58:28;4.65;;;2.60;;
18685;SDS011;9473;52.342;13.110;2023-07-13T11:00:56;4.13;;;2.30;;
18685;SDS011;9473;52.342;13.110;2023-07-13T11:03:25;5.70;;;2.47;;
18685;SDS011;9473;52.342;13.110;2023-07-13T11:06:03;3.83;;;2.83;;
18685;SDS011;9473;52.342;13.110;2023-07-13T11:08:34;6.43;;;2.25;;
18685;SDS011;9473;52.342;13.110;2023-07-13T11:11:04;6.45;;;2.20;;
18685;SDS011;9473;52.342;13.110;2023-07-13T11:13:57;4.93;;;2.22;;
18685;SDS011;9473;52.342;13.110;2023-07-13T11:16:35;6.95;;;2.42;;
18685;SDS011;9473;52.342;13.110;2023-07-13T11:19:23;4.07;;;2.22;;
18685;SDS011;9473;52.342;13.110;2023-07-13T11:22:10;8.27;;;2.63;;
18685;SDS011;9473;52.342;13.110;2023-07-13T11:24:50;4.90;;;2.70;;
18685;SDS011;9473;52.342;13.110;2023-07-13T11:27:24;4.40;;;2.22;;
18685;SDS011;9473;52.342;13.110;2023-07-13T11:30:06;4.93;;;2.63;;
18685;SDS011;9473;52.342;13.110;2023-07-13T11:32:33;6.70;;;2.28;;
18685;SDS011;9473;52.342;13.110;2023-07-13T11:35:01;6.70;;;2.30;;
18685;SDS011;9473;52.342;13.110;2023-07-13T11:37:28;3.40;;;2.05;;
18685;SDS011;9473;52.342;13.110;2023-07-13T11:39:56;7.25;;;2.20;;
18685;SDS011;9473;52.342;13.110;2023-07-13T11:42:25;3.17;;;1.90;;
18685;SDS011;9473;52.342;13.110;2023-07-13T11:44:52;6.25;;;2.50;;
18685;SDS011;9473;52.342;13.110;2023-07-13T11:47:22;4.72;;;1.92;;
18685;SDS011;9473;52.342;13.110;2023-07-13T11:49:52;4.43;;;1.83;;
18685;SDS011;9473;52.342;13.110;2023-07-13T11:52:21;2.72;;;1.73;;
18685;SDS011;9473;52.342;13.110;2023-07-13T11:54:49;4.40;;;1.90;;
18685;SDS011;9473;52.342;13.110;2023-07-13T11:57:23;10.80;;;2.20;;
18685;SDS011;9473;52.342;13.110;2023-07-13T11:59:51;4.00;;;1.70;;
18685;SDS011;9473;52.342;13.110;2023-07-13T12:02:23;5.72;;;1.80;;
18685;SDS011;9473;52.342;13.110;2023-07-13T12:04:52;7.07;;;2.40;;
18685;SDS011;9473;52.342;13.110;2023-07-13T12:07:19;3.22;;;1.98;;
18685;SDS011;9473;52.342;13.110;2023-07-13T12:09:46;4.50;;;2.10;;
18685;SDS011;9473;52.342;13.110;2023-07-13T12:12:17;3.33;;;1.85;;
18685;SDS011;9473;52.342;13.110;2023-07-13T12:14:44;11.27;;;2.00;;
18685;SDS011;9473;52.342;13.110;2023-07-13T12:17:15;5.32;;;1.90;;
18685;SDS011;9473;52.342;13.110;2023-07-13T12:19:42;4.55;;;2.00;;
18685;SDS011;9473;52.342;13.110;2023-07-13T12:22:09;3.85;;;1.90;;
18685;SDS011;9473;52.342;13.110;2023-07-13T12:24:38;4.78;;;1.85;;
18685;SDS011;9473;52.342;13.110;2023-07-13T12:27:06;2.80;;;1.83;;
18685;SDS011;9473;52.342;13.110;2023-07-13T12:29:33;7.88;;;2.05;;
18685;SDS011;9473;52.342;13.110;2023-07-13T12:32:00;4.45;;;1.92;;
18685;SDS011;9473;52.342;13.110;2023-07-13T12:34:28;4.85;;;1.80;;
18685;SDS011;9473;52.342;13.110;2023-07-13T12:36:55;5.38;;;1.60;;
18685;SDS011;9473;52.342;13.110;2023-07-13T12:39:23;6.13;;;1.73;;
18685;SDS011;9473;52.342;13.110;2023-07-13T12:41:52;4.50;;;1.63;;
18685;SDS011;9473;52.342;13.110;2023-07-13T12:44:21;2.97;;;1.52;;
18685;SDS011;9473;52.342;13.110;2023-07-13T12:46:56;4.05;;;1.52;;
18685;SDS011;9473;52.342;13.110;2023-07-13T12:49:26;2.30;;;1.40;;
18685;SDS011;9473;52.342;13.110;2023-07-13T12:51:58;6.05;;;1.60;;
18685;SDS011;9473;52.342;13.110;2023-07-13T12:54:26;3.95;;;1.58;;
18685;SDS011;9473;52.342;13.110;2023-07-13T12:56:54;3.53;;;1.60;;
18685;SDS011;9473;52.342;13.110;2023-07-13T12:59:23;2.40;;;1.20;;
18685;SDS011;9473;52.342;13.110;2023-07-13T13:01:51;4.03;;;1.50;;
18685;SDS011;9473;52.342;13.110;2023-07-13T13:04:18;3.13;;;1.40;;
18685;SDS011;9473;52.342;13.110;2023-07-13T13:06:46;3.75;;;1.33;;
18685;SDS011;9473;52.342;13.110;2023-07-13T13:09:15;3.78;;;1.63;;
18685;SDS011;9473;52.342;13.110;2023-07-13T13:11:43;3.15;;;1.20;;
18685;SDS011;9473;52.342;13.110;2023-07-13T13:14:10;2.22;;;1.15;;
18685;SDS011;9473;52.342;13.110;2023-07-13T13:16:39;3.05;;;1.48;;
18685;SDS011;9473;52.342;13.110;2023-07-13T13:19:12;2.88;;;1.20;;
18685;SDS011;9473;52.342;13.110;2023-07-13T13:21:39;3.03;;;1.40;;
18685;SDS011;9473;52.342;13.110;2023-07-13T13:24:10;3.10;;;1.20;;
18685;SDS011;9473;52.342;13.110;2023-07-13T13:26:38;4.03;;;1.50;;
18685;SDS011;9473;52.342;13.110;2023-07-13T13:29:09;2.85;;;1.10;;
18685;SDS011;9473;52.342;13.110;2023-07-13T13:31:38;3.50;;;1.25;;
18685;SDS011;9473;52.342;13.110;2023-07-13T13:34:07;6.05;;;1.30;;
18685;SDS011;9473;52.342;13.110;2023-07-13T13:36:34;2.78;;;1.15;;
18685;SDS011;9473;52.342;13.110;2023-07-13T13:39:01;3.45;;;1.25;;
18685;SDS011;9473;52.342;13.110;2023-07-13T13:41:29;2.45;;;1.20;;
18685;SDS011;9473;52.342;13.110;2023-07-13T13:43:58;2.58;;;1.30;;
18685;SDS011;9473;52.342;13.110;2023-07-13T13:46:24;3.88;;;1.40;;
18685;SDS011;9473;52.342;13.110;2023-07-13T13:48:53;5.20;;;1.33;;
18685;SDS011;9473;52.342;13.110;2023-07-13T13:51:22;3.40;;;1.45;;
18685;SDS011;9473;52.342;13.110;2023-07-13T13:53:50;5.40;;;1.60;;
18685;SDS011;9473;52.342;13.110;2023-07-13T13:56:18;5.55;;;1.50;;
18685;SDS011;9473;52.342;13.110;2023-07-13T13:58:45;2.97;;;1.10;;
18685;SDS011;9473;52.342;13.110;2023-07-13T14:01:16;2.55;;;1.08;;
18685;SDS011;9473;52.342;13.110;2023-07-13T14:03:43;2.75;;;1.27;;
18685;SDS011;9473;52.342;13.110;2023-07-13T14:06:11;2.28;;;1.20;;
18685;SDS011;9473;52.342;13.110;2023-07-13T14:08:38;2.25;;;1.10;;
18685;SDS011;9473;52.342;13.110;2023-07-13T14:11:05;7.85;;;1.30;;
18685;SDS011;9473;52.342;13.110;2023-07-13T14:13:32;3.83;;;1.27;;
18685;SDS011;9473;52.342;13.110;2023-07-13T14:16:02;4.47;;;1.17;;
18685;SDS011;9473;52.342;13.110;2023-07-13T14:18:31;3.33;;;1.00;;
18685;SDS011;9473;52.342;13.110;2023-07-13T14:20:58;2.88;;;1.15;;
18685;SDS011;9473;52.342;13.110;2023-07-13T14:23:25;3.63;;;1.10;;
18685;SDS011;9473;52.342;13.110;2023-07-13T14:25:52;3.80;;;1.30;;
18685;SDS011;9473;52.342;13.110;2023-07-13T14:28:21;2.53;;;1.00;;
18685;SDS011;9473;52.342;13.110;2023-07-13T14:30:49;2.53;;;0.93;;
18685;SDS011;9473;52.342;13.110;2023-07-13T14:33:16;3.30;;;1.02;;
18685;SDS011;9473;52.342;13.110;2023-07-13T14:35:44;2.28;;;1.08;;
18685;SDS011;9473;52.342;13.110;2023-07-13T14:38:12;4.20;;;0.93;;
18685;SDS011;9473;52.342;13.110;2023-07-13T14:40:39;3.17;;;1.20;;
18685;SDS011;9473;52.342;13.110;2023-07-13T14:43:09;7.82;;;1.13;;
18685;SDS011;9473;52.342;13.110;2023-07-13T14:45:37;2.50;;;0.82;;
18685;SDS011;9473;52.342;13.110;2023-07-13T14:48:08;6.03;;;1.20;;
18685;SDS011;9473;52.342;13.110;2023-07-13T14:50:36;3.95;;;0.90;;
18685;SDS011;9473;52.342;13.110;2023-07-13T14:53:07;2.83;;;0.85;;
18685;SDS011;9473;52.342;13.110;2023-07-13T14:55:35;1.98;;;0.90;;